Time;durP1;ratioP1;P1;durP2;ratioP2;P2;SDS_P1;SDS_P2;PMS_P1;PMS_P2;Temp;Humidity;BMP_temperature;BMP_pressure;BME280_temperature;BME280_humidity;BME280_pressure;Samples;Min_cycle;Max_cycle;Signal;HPM_P1;HPM_P2
2024/01/19 00:02:13;;;;;;;37.60;12.30;;;;;;;-2.48;100.00;99477.86;108211;1266;22581;-74
2024/01/19 00:05:05;;;;;;;40.60;15.70;;;;;;;-2.48;100.00;99482.24;108345;1260;22677;-77
2024/01/19 00:07:56;;;;;;;44.10;15.00;;;;;;;-2.48;100.00;99486.85;108439;1266;25486;-75
2024/01/19 00:10:47;;;;;;;36.70;12.40;;;;;;;-2.47;100.00;99495.43;108455;1266;22723;-75
2024/01/19 00:13:38;;;;;;;37.90;12.10;;;;;;;-2.45;100.00;99502.67;108411;1267;25664;-75
2024/01/19 00:16:29;;;;;;;35.30;11.60;;;;;;;-2.44;100.00;99505.31;108319;1260;22762;-74
2024/01/19 00:19:20;;;;;;;36.40;13.60;;;;;;;-2.43;100.00;99508.26;108422;1266;24354;-78
2024/01/19 00:22:11;;;;;;;35.90;12.90;;;;;;;-2.41;100.00;99511.13;108617;1260;24562;-75
2024/01/19 00:25:02;;;;;;;57.20;21.20;;;;;;;-2.40;100.00;99512.60;108343;1266;26262;-75
2024/01/19 00:27:53;;;;;;;51.20;18.00;;;;;;;-2.38;100.00;99510.79;111427;1267;23060;-77
2024/01/19 00:30:43;;;;;;;39.00;12.60;;;;;;;-2.36;100.00;99513.27;111459;1267;22820;-74
2024/01/19 00:33:34;;;;;;;38.10;12.90;;;;;;;-2.35;100.00;99511.20;111583;1266;22859;-73
2024/01/19 00:36:25;;;;;;;37.00;11.70;;;;;;;-2.32;100.00;99509.93;111460;1267;22182;-72
2024/01/19 00:39:16;;;;;;;41.50;13.10;;;;;;;-2.29;100.00;99514.50;111592;1266;22384;-73
2024/01/19 00:42:07;;;;;;;47.40;14.30;;;;;;;-2.27;100.00;99516.88;111615;1263;22158;-75
2024/01/19 00:44:58;;;;;;;41.70;13.20;;;;;;;-2.24;100.00;99519.73;111621;1267;22594;-74
2024/01/19 00:47:49;;;;;;;37.70;12.90;;;;;;;-2.20;100.00;99523.91;111467;1263;22205;-74
2024/01/19 00:50:39;;;;;;;39.10;13.80;;;;;;;-2.18;100.00;99522.64;111557;1263;22700;-76
2024/01/19 00:53:30;;;;;;;38.50;13.40;;;;;;;-2.16;100.00;99521.12;111594;1266;22151;-74
2024/01/19 00:56:21;;;;;;;39.80;12.90;;;;;;;-2.13;100.00;99524.76;111590;1251;22222;-74
2024/01/19 00:59:12;;;;;;;41.30;12.90;;;;;;;-2.13;100.00;99524.14;111590;1266;23030;-76
2024/01/19 01:02:03;;;;;;;38.30;13.20;;;;;;;-2.12;100.00;99531.38;111594;1263;22908;-75
2024/01/19 01:04:53;;;;;;;38.40;13.50;;;;;;;-2.11;100.00;99536.13;111599;1266;22350;-73
2024/01/19 01:07:43;;;;;;;;;;;;;;;-2.09;100.00;99537.61;111602;1266;22412;-74
2024/01/19 01:10:33;;;;;;;31.20;10.20;;;;;;;-2.08;100.00;99544.85;111579;1263;22179;-74
2024/01/19 01:13:25;;;;;;;29.10;9.10;;;;;;;-2.07;100.00;99551.94;111563;1260;23027;-74
2024/01/19 01:16:16;;;;;;;34.80;11.20;;;;;;;-2.06;100.00;99559.81;111588;1261;22309;-75
2024/01/19 01:19:07;;;;;;;35.80;11.80;;;;;;;-2.06;100.00;99566.23;111590;1259;22197;-78
2024/01/19 01:21:57;;;;;;;29.90;9.60;;;;;;;-2.06;100.00;99574.98;111443;1268;22245;-73
2024/01/19 01:24:48;;;;;;;38.30;12.70;;;;;;;-2.04;100.00;99575.11;111445;1268;22465;-73
2024/01/19 01:27:39;;;;;;;30.00;9.00;;;;;;;-2.03;100.00;99581.42;111455;1267;22422;-73
2024/01/19 01:30:29;;;;;;;31.40;10.30;;;;;;;-2.02;100.00;99580.63;111574;1261;23118;-74
2024/01/19 01:33:21;;;;;;;29.20;9.00;;;;;;;-2.00;100.00;99583.02;111605;1263;22160;-72
2024/01/19 01:36:12;;;;;;;28.20;9.90;;;;;;;-2.00;100.00;99585.84;111566;1263;23354;-74
2024/01/19 01:39:03;;;;;;;39.40;9.80;;;;;;;-1.99;100.00;99590.84;111566;1266;22232;-73
2024/01/19 01:41:53;;;;;;;31.20;10.20;;;;;;;-2.00;100.00;99590.05;111611;1260;22655;-75
2024/01/19 01:44:42;;;;;;;;;;;;;;;-1.99;100.00;99589.73;111601;1260;22318;-73
2024/01/19 01:47:34;;;;;;;27.50;8.90;;;;;;;-1.99;100.00;99592.40;111602;1260;22155;-75
2024/01/19 01:50:25;;;;;;;37.70;10.60;;;;;;;-1.99;100.00;99593.95;111603;1263;22154;-73
2024/01/19 01:53:18;;;;;;;29.20;10.30;;;;;;;-1.98;100.00;99599.02;111553;1263;22594;-75
2024/01/19 01:56:09;;;;;;;30.80;10.50;;;;;;;-1.97;100.00;99600.19;111609;1260;22147;-75
2024/01/19 01:58:59;;;;;;;30.90;10.50;;;;;;;-1.97;100.00;99604.77;111609;1260;22405;-72
2024/01/19 02:01:50;;;;;;;33.00;10.10;;;;;;;-2.00;100.00;99608.89;111583;1266;22211;-75
2024/01/19 02:04:42;;;;;;;33.50;10.10;;;;;;;-2.01;100.00;99612.43;111581;1260;22790;-73
2024/01/19 02:07:32;;;;;;;32.30;9.70;;;;;;;-2.05;100.00;99618.09;111602;1259;22104;-74
2024/01/19 02:10:23;;;;;;;28.60;9.10;;;;;;;-2.11;100.00;99620.83;111609;1267;23078;-74
2024/01/19 02:13:14;;;;;;;38.80;12.10;;;;;;;-2.16;100.00;99627.69;111569;1261;22412;-75
2024/01/19 02:16:05;;;;;;;30.80;10.90;;;;;;;-2.21;100.00;99630.95;111588;1266;23019;-78
2024/01/19 02:18:56;;;;;;;41.80;12.70;;;;;;;-2.26;100.00;99633.34;111593;1266;23023;-75
2024/01/19 02:21:47;;;;;;;32.20;11.10;;;;;;;-2.31;99.98;99637.70;111580;1266;22104;-73
2024/01/19 02:24:38;;;;;;;34.90;11.30;;;;;;;-2.36;99.87;99640.64;111440;1268;22123;-73
2024/01/19 02:27:30;;;;;;;37.00;11.60;;;;;;;-2.38;99.97;99645.97;111600;1266;22142;-75
2024/01/19 02:30:21;;;;;;;34.20;10.00;;;;;;;-2.39;99.92;99651.84;111442;1254;22357;-76
2024/01/19 02:33:12;;;;;;;37.30;11.20;;;;;;;-2.42;99.86;99654.21;111596;1260;22183;-74
2024/01/19 02:36:03;;;;;;;30.90;11.30;;;;;;;-2.47;99.75;99661.28;111605;1260;22209;-75
2024/01/19 02:38:54;;;;;;;32.30;11.70;;;;;;;-2.49;99.65;99669.96;111571;1266;23208;-76
2024/01/19 02:41:46;;;;;;;33.70;11.60;;;;;;;-2.51;99.55;99678.27;111617;1263;22337;-74
2024/01/19 02:44:37;;;;;;;25.70;9.10;;;;;;;-2.55;99.49;99681.20;111565;1260;22133;-76
2024/01/19 02:47:28;;;;;;;25.00;8.20;;;;;;;-2.57;99.51;99690.81;111601;1260;23056;-74
2024/01/19 02:50:19;;;;;;;27.60;8.40;;;;;;;-2.60;99.42;99695.05;111578;1266;22203;-74
2024/01/19 02:53:10;;;;;;;30.00;9.50;;;;;;;-2.62;99.46;99703.67;111610;1260;22816;-74
2024/01/19 02:56:00;;;;;;;29.20;8.70;;;;;;;-2.61;99.53;99709.96;111564;1267;22142;-72
2024/01/19 02:58:51;;;;;;;28.50;9.30;;;;;;;-2.61;99.39;99714.52;111605;1266;22153;-72
2024/01/19 03:01:42;;;;;;;26.60;7.60;;;;;;;-2.60;99.50;99722.15;111586;1262;22161;-73
2024/01/19 03:04:32;;;;;;;27.90;7.80;;;;;;;-2.59;99.39;99724.32;111596;1260;22908;-74
2024/01/19 03:07:23;;;;;;;28.20;7.90;;;;;;;-2.60;99.17;99733.08;111575;1260;22360;-73
2024/01/19 03:10:14;;;;;;;25.40;7.60;;;;;;;-2.62;98.95;99736.06;111549;1266;22289;-73
2024/01/19 03:13:05;;;;;;;25.40;8.10;;;;;;;-2.65;98.76;99738.35;111467;1261;22289;-76
2024/01/19 03:15:57;;;;;;;25.60;6.30;;;;;;;-2.70;98.39;99742.21;111445;1268;23275;-75
2024/01/19 03:18:48;;;;;;;25.70;6.90;;;;;;;-2.76;98.13;99746.00;111412;1268;22915;-74
2024/01/19 03:21:39;;;;;;;23.60;7.80;;;;;;;-2.81;97.98;99746.51;111431;1268;22292;-75
2024/01/19 03:24:30;;;;;;;25.90;7.50;;;;;;;-2.85;98.11;99748.73;111601;1247;22798;-72
2024/01/19 03:27:21;;;;;;;26.90;8.60;;;;;;;-2.88;98.12;99747.03;111560;1260;22803;-75
2024/01/19 03:30:14;;;;;;;26.50;7.80;;;;;;;-2.92;97.89;99752.05;111568;1267;22191;-73
2024/01/19 03:33:05;;;;;;;23.20;7.50;;;;;;;-2.97;97.87;99759.89;111556;1266;22814;-73
2024/01/19 03:35:56;;;;;;;27.60;7.10;;;;;;;-3.01;97.90;99767.23;111589;1267;22174;-74
2024/01/19 03:38:47;;;;;;;30.50;7.30;;;;;;;-3.02;98.06;99772.33;111595;1263;22347;-75
2024/01/19 03:41:37;;;;;;;23.30;6.20;;;;;;;-3.04;97.89;99780.53;111595;1266;22239;-74
2024/01/19 03:44:28;;;;;;;22.70;6.00;;;;;;;-3.08;97.83;99782.52;111614;1267;22212;-74
2024/01/19 03:47:18;;;;;;;25.00;7.40;;;;;;;-3.10;97.80;99791.48;111584;1260;22172;-74
2024/01/19 03:50:10;;;;;;;23.30;6.60;;;;;;;-3.12;97.63;99799.45;111604;1260;22933;-75
2024/01/19 03:53:00;;;;;;;25.50;8.10;;;;;;;-3.14;97.54;99808.65;111610;1260;22148;-72
2024/01/19 03:55:51;;;;;;;23.00;5.80;;;;;;;-3.15;97.51;99811.94;111584;1264;22947;-74
2024/01/19 03:58:42;;;;;;;26.80;6.70;;;;;;;-3.15;97.70;99808.59;111608;1267;22862;-73
2024/01/19 04:01:33;;;;;;;19.10;5.40;;;;;;;-3.12;97.91;99805.84;111553;1263;23520;-75
2024/01/19 04:04:24;;;;;;;35.10;9.20;;;;;;;-3.11;97.87;99808.96;111424;1259;23256;-74
2024/01/19 04:07:15;;;;;;;63.80;19.30;;;;;;;-3.10;97.87;99806.63;111564;1255;22281;-75
2024/01/19 04:10:06;;;;;;;50.80;17.20;;;;;;;-3.09;97.95;99810.27;111571;1267;22130;-77
2024/01/19 04:12:57;;;;;;;37.40;11.10;;;;;;;-3.06;98.04;99814.23;111439;1268;22130;-72
2024/01/19 04:15:48;;;;;;;41.10;12.80;;;;;;;-3.05;97.86;99813.23;111454;1268;22632;-73
2024/01/19 04:18:39;;;;;;;40.80;12.60;;;;;;;-3.08;97.64;99818.31;111463;1256;22419;-75
2024/01/19 04:21:30;;;;;;;28.40;9.20;;;;;;;-3.10;97.65;99815.21;111580;1263;22936;-74
2024/01/19 04:24:20;;;;;;;24.50;7.60;;;;;;;-3.15;97.33;99813.73;111585;1267;22178;-73
2024/01/19 04:27:11;;;;;;;27.20;6.60;;;;;;;-3.18;97.42;99810.48;111583;1263;22923;-75
2024/01/19 04:30:01;;;;;;;27.40;8.00;;;;;;;-3.21;97.31;99810.26;111586;1260;22189;-72
2024/01/19 04:32:51;;;;;;;21.80;7.30;;;;;;;-3.23;97.40;99815.50;111583;1260;22189;-74
2024/01/19 04:35:42;;;;;;;28.30;8.10;;;;;;;-3.27;97.13;99815.27;111547;1266;22202;-72
2024/01/19 04:38:33;;;;;;;34.30;9.70;;;;;;;-3.33;97.09;99817.32;111583;1266;22300;-74
2024/01/19 04:41:24;;;;;;;32.10;9.60;;;;;;;-3.36;97.08;99818.27;111582;1260;22160;-73
2024/01/19 04:44:15;;;;;;;25.30;8.50;;;;;;;-3.38;97.13;99824.83;111608;1263;22245;-74
2024/01/19 04:47:06;;;;;;;28.10;7.70;;;;;;;-3.41;97.12;99831.78;111427;1256;22297;-75
2024/01/19 04:49:57;;;;;;;23.00;7.50;;;;;;;-3.45;97.07;99831.72;111632;1263;22132;-73
2024/01/19 04:52:48;;;;;;;26.60;8.70;;;;;;;-3.47;97.11;99842.32;111519;1263;22191;-74
2024/01/19 04:55:39;;;;;;;31.60;9.70;;;;;;;-3.50;96.94;99847.48;111497;1260;22935;-75
2024/01/19 04:58:29;;;;;;;30.20;9.00;;;;;;;-3.52;96.92;99854.89;111520;1266;22224;-77
2024/01/19 05:01:20;;;;;;;21.50;7.90;;;;;;;-3.54;96.90;99860.18;111660;1260;22343;-74
2024/01/19 05:04:11;;;;;;;22.50;7.90;;;;;;;-3.56;96.88;99864.17;111644;1260;22652;-75
2024/01/19 05:07:02;;;;;;;27.00;8.40;;;;;;;-3.58;96.81;99868.86;111637;1263;22337;-74
2024/01/19 05:09:53;;;;;;;27.30;9.20;;;;;;;-3.57;96.95;99874.55;111526;1267;22167;-75
2024/01/19 05:12:43;;;;;;;26.00;8.00;;;;;;;-3.56;96.79;99877.12;111334;1261;22661;-74
2024/01/19 05:15:34;;;;;;;27.60;8.60;;;;;;;-3.59;96.63;99880.55;108380;1263;25505;-74
2024/01/19 05:18:25;;;;;;;26.90;8.70;;;;;;;-3.62;96.43;99884.06;108507;1266;22555;-75
2024/01/19 05:21:16;;;;;;;27.10;9.40;;;;;;;-3.67;96.34;99880.96;108576;1260;25559;-75
2024/01/19 05:24:06;;;;;;;;;;;;;;;-3.75;96.27;99883.62;108742;1263;25578;-75
2024/01/19 05:26:56;;;;;;;32.30;9.00;;;;;;;-3.80;96.41;99881.83;108408;1266;22563;-74
2024/01/19 05:29:46;;;;;;;;;;;;;;;-3.82;96.48;99888.06;108642;1266;24190;-73
2024/01/19 05:32:37;;;;;;;33.50;10.10;;;;;;;-3.86;96.40;99895.23;108233;1260;22890;-74
2024/01/19 05:35:28;;;;;;;30.30;11.00;;;;;;;-3.92;96.38;99895.39;108321;1263;25696;-74
2024/01/19 05:38:19;;;;;;;30.00;10.00;;;;;;;-3.97;96.35;99898.98;108404;1263;22560;-75
2024/01/19 05:41:10;;;;;;;31.90;11.50;;;;;;;-4.00;96.49;99900.77;108351;1263;22774;-74
2024/01/19 05:44:01;;;;;;;34.70;11.60;;;;;;;-4.03;96.37;99905.45;109093;1266;22606;-74
2024/01/19 05:46:52;;;;;;;30.40;9.40;;;;;;;-4.07;96.38;99912.29;108982;1260;23614;-74
2024/01/19 05:49:43;;;;;;;32.90;10.90;;;;;;;-4.12;96.29;99920.23;108583;1266;22611;-74
2024/01/19 05:52:34;;;;;;;27.50;10.20;;;;;;;-4.16;96.16;99927.01;108621;1260;22809;-76
2024/01/19 05:55:25;;;;;;;29.20;10.00;;;;;;;-4.21;95.90;99933.23;108715;1266;23166;-73
2024/01/19 05:58:16;;;;;;;32.50;10.80;;;;;;;-4.26;95.96;99932.67;108589;1258;25876;-74
2024/01/19 06:01:08;;;;;;;29.70;9.50;;;;;;;-4.30;95.85;99938.91;108575;1266;22699;-74
2024/01/19 06:04:02;;;;;;;39.10;11.20;;;;;;;-4.32;96.02;99940.30;108477;1260;22688;-74
2024/01/19 06:06:53;;;;;;;31.40;10.60;;;;;;;-4.34;96.16;99945.34;108409;1256;23500;-75
2024/01/19 06:09:43;;;;;;;33.90;11.00;;;;;;;-4.38;95.98;99944.95;108509;1256;25506;-78
2024/01/19 06:12:32;;;;;;;;;;;;;;;-4.44;95.93;99946.80;108205;1268;24479;-74
2024/01/19 06:15:23;;;;;;;34.60;11.90;;;;;;;-4.48;96.04;99951.40;108394;1266;25600;-75
2024/01/19 06:18:14;;;;;;;31.60;11.50;;;;;;;-4.48;96.23;99953.88;108414;1261;23515;-76
2024/01/19 06:21:11;;;;;;;36.00;11.00;;;;;;;-4.49;96.03;99955.98;108272;1254;25715;-75
2024/01/19 06:24:02;;;;;;;33.30;11.10;;;;;;;-4.51;96.09;99960.88;111576;1260;22205;-76
2024/01/19 06:26:53;;;;;;;30.20;10.50;;;;;;;-4.53;95.82;99963.98;111634;1263;23092;-75
2024/01/19 06:29:42;;;;;;;;;;;;;;;-4.57;95.85;99972.39;111502;1264;22325;-75
2024/01/19 06:32:34;;;;;;;36.60;10.80;;;;;;;-4.63;95.51;99975.70;111615;1263;22838;-75
2024/01/19 06:35:25;;;;;;;36.40;11.20;;;;;;;-4.66;95.61;99980.52;111605;1263;23171;-76
2024/01/19 06:38:15;;;;;;;31.00;9.50;;;;;;;-4.68;95.54;99986.66;111598;1263;22169;-77
2024/01/19 06:41:07;;;;;;;31.10;10.20;;;;;;;-4.71;95.47;99992.33;111627;1263;22320;-74
2024/01/19 06:43:57;;;;;;;30.40;10.50;;;;;;;-4.73;95.35;99986.63;111653;1266;22233;-74
2024/01/19 06:46:48;;;;;;;35.60;11.50;;;;;;;-4.75;95.34;99983.44;111572;1267;22238;-75
2024/01/19 06:49:39;;;;;;;34.30;11.10;;;;;;;-4.80;95.09;99980.14;111642;1263;22422;-75
2024/01/19 06:52:30;;;;;;;37.70;13.20;;;;;;;-4.83;95.09;99984.02;111611;1267;22184;-74
2024/01/19 06:55:24;;;;;;;37.40;12.30;;;;;;;-4.85;95.22;99979.65;111453;1251;22354;-74
2024/01/19 06:58:15;;;;;;;36.30;12.60;;;;;;;-4.87;95.23;99982.91;111585;1266;22265;-74
2024/01/19 07:01:06;;;;;;;36.30;13.30;;;;;;;-4.86;95.46;99981.27;111607;1260;22272;-74
2024/01/19 07:03:57;;;;;;;34.40;10.70;;;;;;;-4.87;95.27;99982.45;111458;1268;22235;-73
2024/01/19 07:06:48;;;;;;;34.00;10.50;;;;;;;-4.87;95.49;99980.27;111462;1268;22158;-74
2024/01/19 07:09:39;;;;;;;38.40;12.40;;;;;;;-4.85;95.63;99987.27;111441;1268;22228;-74
2024/01/19 07:12:30;;;;;;;39.60;11.80;;;;;;;-4.83;95.79;99988.14;111622;1263;23217;-74
2024/01/19 07:15:21;;;;;;;55.90;14.70;;;;;;;-4.80;95.95;99992.27;111614;1263;22245;-74
2024/01/19 07:18:12;;;;;;;38.00;14.10;;;;;;;-4.74;96.04;99998.00;111589;1263;22164;-74
2024/01/19 07:21:01;;;;;;;;;;;;;;;-4.67;96.04;100000.20;111641;1255;23344;-74
2024/01/19 07:23:52;;;;;;;36.00;13.40;;;;;;;-4.64;95.84;100004.81;111590;1263;22214;-74
2024/01/19 07:26:43;;;;;;;35.50;12.70;;;;;;;-4.59;95.69;100003.96;111594;1263;22224;-74
2024/01/19 07:29:34;;;;;;;37.40;11.80;;;;;;;-4.54;95.73;100011.54;111479;1260;176202;-74
2024/01/19 07:32:26;;;;;;;30.70;10.90;;;;;;;-4.53;95.39;100011.94;111620;1263;22458;-73
2024/01/19 07:35:17;;;;;;;35.80;12.50;;;;;;;-4.54;95.10;100012.92;111627;1260;22143;-74
2024/01/19 07:38:07;;;;;;;39.10;13.10;;;;;;;-4.58;94.74;100016.81;111652;1263;22227;-74
2024/01/19 07:40:59;;;;;;;40.70;13.90;;;;;;;-4.59;94.78;100018.36;111642;1263;22176;-74
2024/01/19 07:43:50;;;;;;;37.00;13.00;;;;;;;-4.62;94.75;100016.95;111618;1266;22928;-74
2024/01/19 07:46:40;;;;;;;;;;;;;;;-4.63;94.80;100021.70;111618;1267;22315;-75
2024/01/19 07:49:31;;;;;;;41.60;15.30;;;;;;;-4.63;94.88;100019.05;111604;1261;22188;-73
2024/01/19 07:52:22;;;;;;;46.50;15.50;;;;;;;-4.63;94.90;100024.02;111601;1259;23022;-74
2024/01/19 07:55:13;;;;;;;44.50;16.60;;;;;;;-4.62;94.92;100024.73;111625;1267;23444;-74
2024/01/19 07:58:04;;;;;;;41.90;15.60;;;;;;;-4.61;94.85;100026.52;111632;1267;22221;-74
2024/01/19 08:00:55;;;;;;;43.10;14.20;;;;;;;-4.63;94.64;100030.33;111475;1268;23034;-73
2024/01/19 08:03:46;;;;;;;39.40;13.80;;;;;;;-4.63;94.69;100028.84;111419;1268;22237;-74
2024/01/19 08:06:37;;;;;;;45.10;16.80;;;;;;;-4.58;95.04;100029.73;111448;1268;22320;-75
2024/01/19 08:09:28;;;;;;;44.10;16.30;;;;;;;-4.53;94.99;100036.22;111587;1263;23006;-74
2024/01/19 08:12:17;;;;;;;;;;;;;;;-4.53;94.78;100038.16;111636;1256;22286;-75
2024/01/19 08:15:10;;;;;;;51.60;16.60;;;;;;;-4.51;94.93;100039.73;111601;1263;23084;-74
2024/01/19 08:18:01;;;;;;;47.50;18.30;;;;;;;-4.46;95.08;100039.29;111614;1264;22225;-74
2024/01/19 08:20:51;;;;;;;50.70;20.40;;;;;;;-4.42;95.05;100040.39;111618;1257;22128;-74
2024/01/19 08:23:42;;;;;;;44.50;17.50;;;;;;;-4.40;94.82;100039.46;111592;1260;22578;-74
2024/01/19 08:26:33;;;;;;;52.30;18.20;;;;;;;-4.33;94.90;100044.55;111630;1260;22235;-74
2024/01/19 08:29:24;;;;;;;41.70;15.70;;;;;;;-4.29;94.89;100047.37;111633;1263;22228;-74
2024/01/19 08:32:16;;;;;;;44.90;15.80;;;;;;;-4.27;94.77;100050.73;111618;1256;22174;-74
2024/01/19 08:35:08;;;;;;;;;;;;;;;-4.26;94.66;100052.20;111613;1266;22385;-74
2024/01/19 08:37:59;;;;;;;41.70;13.90;;;;;;;-4.27;94.58;100056.17;111612;1266;22428;-75
2024/01/19 08:40:50;;;;;;;43.50;16.70;;;;;;;-4.27;94.54;100056.25;111588;1260;22185;-73
2024/01/19 08:43:43;;;;;;;38.90;13.00;;;;;;;-4.27;94.56;100058.66;111457;1250;22349;-74
2024/01/19 08:46:34;;;;;;;38.60;14.00;;;;;;;-4.27;94.40;100068.73;111633;1263;22216;-74
2024/01/19 08:49:25;;;;;;;42.10;15.30;;;;;;;-4.24;94.63;100074.02;111604;1261;22397;-74
2024/01/19 08:52:16;;;;;;;48.60;16.70;;;;;;;-4.24;94.31;100074.32;111585;1261;23058;-74
2024/01/19 08:55:06;;;;;;;;;;;;;;;-4.25;94.09;100076.04;111636;1260;22951;-75
2024/01/19 08:57:56;;;;;;;46.70;15.70;;;;;;;-4.22;94.46;100082.05;111457;1268;22312;-74
2024/01/19 09:00:47;;;;;;;53.00;17.40;;;;;;;-4.19;94.43;100089.69;111474;1268;22252;-75
2024/01/19 09:03:38;;;;;;;46.00;15.60;;;;;;;-4.16;94.55;100093.36;111456;1267;22197;-74
2024/01/19 09:06:27;;;;;;;;;;;;;;;-4.11;94.49;100101.64;111594;1267;22345;-74
2024/01/19 09:09:18;;;;;;;49.90;17.60;;;;;;;-4.13;94.11;100106.69;111591;1263;23134;-75
2024/01/19 09:12:09;;;;;;;53.50;20.30;;;;;;;-4.15;94.10;100116.66;111616;1263;22381;-74
2024/01/19 09:15:00;;;;;;;55.20;18.60;;;;;;;-4.15;94.10;100128.50;111597;1263;22291;-74
2024/01/19 09:17:51;;;;;;;65.40;22.40;;;;;;;-4.16;94.10;100134.16;111605;1263;22205;-74
2024/01/19 09:20:43;;;;;;;58.00;19.60;;;;;;;-4.16;94.07;100144.45;111482;1264;22272;-74
2024/01/19 09:23:34;;;;;;;57.90;20.30;;;;;;;-4.14;94.16;100149.05;111616;1257;23118;-74
2024/01/19 09:26:25;;;;;;;63.30;21.60;;;;;;;-4.12;94.27;100158.41;111597;1263;22182;-74
2024/01/19 09:29:16;;;;;;;68.90;23.10;;;;;;;-4.08;94.27;100161.63;111578;1266;22178;-74
2024/01/19 09:32:07;;;;;;;53.40;20.90;;;;;;;-4.05;94.28;100167.79;111607;1267;23447;-74
2024/01/19 09:34:58;;;;;;;60.70;20.60;;;;;;;-4.03;94.07;100173.02;111593;1263;22360;-74
2024/01/19 09:37:47;;;;;;;;;;;;;;;-4.01;94.32;100171.16;111621;1263;23094;-75
2024/01/19 09:40:39;;;;;;;81.90;27.50;;;;;;;-4.00;94.16;100174.77;111593;1263;23225;-76
2024/01/19 09:43:33;;;;;;;88.90;27.80;;;;;;;-3.97;94.22;100177.64;111466;1260;22254;-74
2024/01/19 09:46:29;;;;;;;85.60;28.10;;;;;;;-3.95;94.14;100182.48;111576;1261;22661;-74
2024/01/19 09:49:28;;;;;;;73.20;23.80;;;;;;;-3.96;93.91;100186.45;111611;1263;22286;-74
2024/01/19 09:52:28;;;;;;;67.00;22.10;;;;;;;-3.98;93.71;100186.43;111422;1266;22358;-74
2024/01/19 09:55:20;;;;;;;59.80;21.80;;;;;;;-3.96;93.99;100188.25;111592;1260;22324;-74
2024/01/19 09:58:12;;;;;;;57.80;21.10;;;;;;;-3.94;94.04;100187.48;111474;1261;22371;-75
2024/01/19 10:01:04;;;;;;;50.90;17.40;;;;;;;-3.93;93.97;100186.16;111634;1256;22818;-75
2024/01/19 10:03:59;;;;;;;54.60;17.30;;;;;;;-3.93;93.78;100186.15;111441;1268;22183;-74
2024/01/19 10:06:51;;;;;;;54.60;15.90;;;;;;;-3.93;93.70;100185.52;111471;1268;22196;-74
2024/01/19 10:09:42;;;;;;;45.10;14.90;;;;;;;-3.96;93.56;100182.64;111256;1268;22260;-74
2024/01/19 10:12:34;;;;;;;46.00;14.80;;;;;;;-3.95;93.73;100183.18;111622;1266;22186;-74
2024/01/19 10:15:25;;;;;;;46.80;15.20;;;;;;;-3.92;93.72;100183.73;111455;1268;22231;-74
2024/01/19 10:18:17;;;;;;;50.40;15.80;;;;;;;-3.91;93.72;100182.34;111568;1263;22129;-74
2024/01/19 10:21:08;;;;;;;44.10;15.60;;;;;;;-3.88;93.73;100178.86;111623;1263;22234;-75
2024/01/19 10:24:14;;;;;;;47.20;14.90;;;;;;;-3.85;93.78;100181.36;111618;1260;22177;-74
2024/01/19 10:27:05;;;;;;;46.30;14.90;;;;;;;-3.82;93.77;100180.20;111611;1266;22204;-74
2024/01/19 10:30:10;;;;;;;51.30;15.20;;;;;;;-3.81;93.74;100179.11;111588;1267;22112;-74
2024/01/19 10:33:08;;;;;;;51.90;14.50;;;;;;;-3.77;94.00;100175.61;111482;1266;22124;-75
2024/01/19 10:36:00;;;;;;;47.50;14.30;;;;;;;-3.73;94.09;100171.11;111609;1256;22182;-74
2024/01/19 10:38:50;;;;;;;36.00;12.00;;;;;;;-3.67;94.20;100170.59;111636;1267;22250;-75
2024/01/19 10:41:40;;;;;;;;;;;;;;;-3.62;94.19;100171.77;111623;1263;22381;-73
2024/01/19 10:44:30;;;;;;;33.60;9.90;;;;;;;-3.55;94.37;100172.89;111588;1267;23019;-74
2024/01/19 10:47:20;;;;;;;;;;;;;;;-3.46;94.53;100173.69;111623;1264;22322;-74
2024/01/19 10:50:11;;;;;;;30.60;8.70;;;;;;;-3.37;94.73;100173.25;111595;1267;22130;-74
2024/01/19 10:53:11;;;;;;;27.20;8.20;;;;;;;-3.28;94.73;100176.69;111594;1263;22204;-74
2024/01/19 10:56:04;;;;;;;29.20;7.80;;;;;;;-3.18;94.69;100171.79;111479;1266;22137;-74
2024/01/19 10:58:54;;;;;;;34.40;8.00;;;;;;;-3.06;94.70;100178.27;111568;1260;22198;-75
2024/01/19 11:01:57;;;;;;;26.60;6.00;;;;;;;-2.96;94.67;100177.97;111591;1263;22284;-73
2024/01/19 11:04:48;;;;;;;25.80;6.50;;;;;;;-2.84;94.52;100174.77;111606;1257;22141;-75
2024/01/19 11:07:39;;;;;;;24.60;3.70;;;;;;;-2.72;94.59;100180.09;111586;1257;22206;-74
2024/01/19 11:10:32;;;;;;;17.60;4.20;;;;;;;-2.60;94.47;100179.52;111593;1260;22200;-73
2024/01/19 11:13:25;;;;;;;21.80;3.30;;;;;;;-2.49;94.32;100173.80;111588;1261;22387;-75
2024/01/19 11:16:21;;;;;;;16.10;3.60;;;;;;;-2.38;94.31;100175.27;111586;1259;22304;-74
2024/01/19 11:19:13;;;;;;;17.10;4.00;;;;;;;-2.28;94.20;100170.56;111616;1261;22260;-73
2024/01/19 11:22:05;;;;;;;18.80;3.40;;;;;;;-2.17;94.01;100163.52;111594;1267;22149;-74
2024/01/19 11:25:07;;;;;;;15.90;3.00;;;;;;;-2.07;93.98;100172.07;111434;1268;22134;-74
2024/01/19 11:28:06;;;;;;;21.10;3.40;;;;;;;-1.97;94.00;100167.98;111465;1268;22159;-75
2024/01/19 11:31:10;;;;;;;23.20;4.70;;;;;;;-1.88;94.01;100171.31;111428;1268;22100;-74
2024/01/19 11:34:02;;;;;;;16.80;3.60;;;;;;;-1.79;93.77;100169.48;111442;1257;22190;-76
2024/01/19 11:36:52;;;;;;;14.70;3.10;;;;;;;-1.71;93.44;100169.60;111421;1268;22524;-74
2024/01/19 11:39:44;;;;;;;22.20;3.90;;;;;;;-1.62;93.40;100174.25;111460;1268;22295;-75
2024/01/19 11:42:47;;;;;;;16.30;3.30;;;;;;;-1.55;93.27;100177.41;111623;1267;22224;-74
2024/01/19 11:45:42;;;;;;;19.00;3.40;;;;;;;-1.45;93.20;100172.52;111447;1268;23100;-74
2024/01/19 11:48:43;;;;;;;21.30;3.90;;;;;;;-1.39;93.15;100171.23;111622;1267;22292;-75
2024/01/19 11:51:36;;;;;;;15.30;2.10;;;;;;;-1.33;92.91;100167.98;111578;1267;22113;-74
2024/01/19 11:54:30;;;;;;;17.00;2.30;;;;;;;-1.27;92.87;100170.85;111592;1267;22320;-75
2024/01/19 11:57:22;;;;;;;19.80;2.80;;;;;;;-1.20;92.84;100174.55;111580;1267;23285;-75
2024/01/19 12:00:15;;;;;;;17.70;3.30;;;;;;;-1.14;92.79;100167.06;111599;1263;22166;-75
2024/01/19 12:03:06;;;;;;;14.80;2.10;;;;;;;-1.06;92.45;100172.34;111594;1263;23139;-75
2024/01/19 12:05:59;;;;;;;15.20;2.30;;;;;;;-0.98;92.45;100175.33;111447;1267;22307;-74
2024/01/19 12:09:05;;;;;;;16.30;3.20;;;;;;;-0.91;92.11;100182.27;111614;1263;22082;-75
2024/01/19 12:11:59;;;;;;;19.40;3.20;;;;;;;-0.84;92.20;100180.80;111599;1261;22139;-75
2024/01/19 12:14:52;;;;;;;33.80;6.30;;;;;;;-0.78;91.67;100181.13;111591;1265;22202;-72
2024/01/19 12:17:44;;;;;;;27.30;4.90;;;;;;;-0.72;91.91;100178.43;111581;1263;23174;-71
2024/01/19 12:20:35;;;;;;;19.80;3.60;;;;;;;-0.67;91.72;100177.05;111586;1257;22694;-74
2024/01/19 12:23:25;;;;;;;;;;;;;;;-0.62;91.34;100177.02;111622;1263;22376;-75
2024/01/19 12:26:21;;;;;;;19.00;2.70;;;;;;;-0.59;91.48;100175.02;111593;1254;23225;-75
2024/01/19 12:29:27;;;;;;;17.70;2.70;;;;;;;-0.55;91.29;100172.09;111594;1267;22318;-75
2024/01/19 12:32:18;;;;;;;19.20;4.10;;;;;;;-0.50;90.87;100181.44;111449;1267;22143;-74
2024/01/19 12:35:11;;;;;;;29.60;5.90;;;;;;;-0.45;90.69;100178.73;111585;1266;22988;-74
2024/01/19 12:38:02;;;;;;;17.50;4.00;;;;;;;-0.41;90.89;100182.44;111489;1266;22362;-75
2024/01/19 12:40:51;;;;;;;;;;;;;;;-0.37;90.61;100188.91;111626;1266;22397;-75
2024/01/19 12:43:43;;;;;;;20.90;4.70;;;;;;;-0.33;90.46;100194.21;111624;1267;22183;-75
2024/01/19 12:46:34;;;;;;;20.50;4.50;;;;;;;-0.31;90.41;100196.15;111561;1260;22119;-74
2024/01/19 12:49:25;;;;;;;22.10;3.60;;;;;;;-0.30;90.33;100207.97;111621;1261;23140;-75
2024/01/19 12:52:15;;;;;;;;;;;;;;;-0.28;89.90;100209.98;111612;1261;22356;-76
2024/01/19 12:55:07;;;;;;;12.90;1.30;;;;;;;-0.24;90.19;100210.98;111592;1260;22615;-76
2024/01/19 12:57:59;;;;;;;13.60;2.10;;;;;;;-0.21;89.91;100213.76;111451;1268;22193;-76
2024/01/19 13:00:50;;;;;;;14.80;1.70;;;;;;;-0.17;89.95;100214.12;111441;1268;22832;-73
2024/01/19 13:03:41;;;;;;;13.00;1.50;;;;;;;-0.15;89.72;100212.77;111478;1268;22320;-72